Time;durP1;ratioP1;P1;durP2;ratioP2;P2;SDS_P1;SDS_P2;PMS_P1;PMS_P2;Temp;Humidity;BMP_temperature;BMP_pressure;BME280_temperature;BME280_humidity;BME280_pressure;Samples;Min_cycle;Max_cycle;Signal;HPM_P1;HPM_P2
2022/01/15 00:03:52;;;;;;;20.00;4.40;;;;;;;-0.11;100.00;100375.03;8302509;28;20111;-72
2022/01/15 00:07:53;;;;;;;27.83;5.97;;;;;;;-0.13;100.00;100377.06;8334442;28;20065;-72
2022/01/15 00:11:54;;;;;;;40.15;5.72;;;;;;;-0.14;100.00;100375.44;8324991;28;20057;-73
2022/01/15 00:16:06;;;;;;;29.17;5.20;;;;;;;-0.12;100.00;100378.72;8300145;28;20061;-72
2022/01/15 00:20:08;;;;;;;30.40;5.40;;;;;;;-0.12;100.00;100384.03;8300894;28;20065;-73
2022/01/15 00:24:09;;;;;;;37.97;5.50;;;;;;;-0.11;100.00;100380.34;8318286;28;20523;-72
2022/01/15 00:28:09;;;;;;;26.20;4.60;;;;;;;-0.14;100.00;100375.44;8332903;28;20082;-72
2022/01/15 00:32:10;;;;;;;24.05;4.97;;;;;;;-0.14;100.00;100370.13;8324180;28;20045;-72
2022/01/15 00:36:11;;;;;;;24.33;4.60;;;;;;;-0.14;100.00;100370.13;8303518;28;20119;-71
2022/01/15 00:40:14;;;;;;;27.80;4.78;;;;;;;-0.11;100.00;100375.03;8300223;28;20046;-72
2022/01/15 00:44:15;;;;;;;25.33;4.82;;;;;;;-0.14;100.00;100375.44;8300480;28;20516;-73
2022/01/15 00:48:16;;;;;;;30.55;4.15;;;;;;;-0.22;100.00;100380.97;8300235;28;20108;-72
2022/01/15 00:52:17;;;;;;;25.48;4.50;;;;;;;-0.25;100.00;100384.03;8302058;28;20056;-72
2022/01/15 00:56:18;;;;;;;25.00;4.30;;;;;;;-0.28;100.00;100384.47;8331227;28;20049;-72
2022/01/15 01:00:22;;;;;;;27.45;4.65;;;;;;;-0.27;100.00;100391.41;8299885;28;20076;-73
2022/01/15 01:04:23;;;;;;;39.60;4.80;;;;;;;-0.26;100.00;100385.06;8332343;28;20049;-72
2022/01/15 01:08:24;;;;;;;24.80;4.97;;;;;;;-0.18;100.00;100384.84;8278627;28;20485;-73
2022/01/15 01:21:53;;;;;;;32.25;4.88;;;;;;;-0.21;100.00;100379.97;8230853;28;20079;-72
2022/01/15 01:25:43;;;;;;;30.70;4.67;;;;;;;-0.30;100.00;100386.50;8241644;28;20134;-72
2022/01/15 01:33:52;;;;;;;24.33;4.25;;;;;;;-0.39;100.00;100385.09;8271193;28;20062;-72
2022/01/15 01:37:55;;;;;;;27.77;5.05;;;;;;;-0.37;100.00;100385.72;8262328;28;20054;-72
2022/01/15 01:42:28;;;;;;;23.77;4.57;;;;;;;-0.37;100.00;100385.72;8246126;28;20080;-72
2022/01/15 01:50:29;;;;;;;33.42;4.60;;;;;;;-0.43;100.00;100366.94;8326688;28;20128;-72
2022/01/15 01:54:30;;;;;;;29.00;4.20;;;;;;;-0.48;100.00;100368.56;8300007;28;20116;-72
2022/01/15 01:58:31;;;;;;;25.40;4.72;;;;;;;-0.50;100.00;100371.44;8298144;28;20071;-73
2022/01/15 02:02:32;;;;;;;28.48;4.43;;;;;;;-0.52;100.00;100375.28;8298191;28;20050;-73
2022/01/15 02:06:34;;;;;;;21.60;3.42;;;;;;;-0.52;100.00;100373.47;8297837;28;20057;-72
2022/01/15 02:10:36;;;;;;;33.38;4.53;;;;;;;-0.50;100.00;100376.72;8307985;28;20041;-72
2022/01/15 02:14:36;;;;;;;41.05;4.65;;;;;;;-0.50;100.00;100376.72;8267732;28;20053;-72
2022/01/15 02:18:38;;;;;;;23.92;4.38;;;;;;;-0.52;100.00;100378.75;8305118;28;20054;-72
2022/01/15 02:26:58;;;;;;;31.15;4.28;;;;;;;-0.55;100.00;100379.19;8315626;28;20054;-72
2022/01/15 02:31:10;;;;;;;33.05;4.30;;;;;;;-0.60;100.00;100381.66;8297281;28;20205;-72
2022/01/15 02:35:13;;;;;;;37.45;4.75;;;;;;;-0.59;100.00;100383.28;8283497;28;20048;-72
2022/01/15 02:39:13;;;;;;;38.05;4.75;;;;;;;-0.62;100.00;100378.38;8299471;28;20480;-72
2022/01/15 02:43:18;;;;;;;30.58;4.85;;;;;;;-0.64;100.00;100391.03;8297018;28;20046;-72
2022/01/15 02:51:38;;;;;;;32.42;5.70;;;;;;;-0.64;100.00;100385.72;8319807;28;20104;-72
2022/01/15 02:55:44;;;;;;;25.27;4.95;;;;;;;-0.66;100.00;100382.47;8320215;28;20396;-72
2022/01/15 02:59:45;;;;;;;35.78;5.22;;;;;;;-0.66;100.00;100371.84;8328843;28;20524;-72
2022/01/15 03:03:46;;;;;;;27.63;4.40;;;;;;;-0.70;100.00;100375.94;8303647;28;20061;-72
2022/01/15 03:07:47;;;;;;;28.30;4.57;;;;;;;-0.70;100.00;100375.94;8296162;28;20058;-72
2022/01/15 03:11:48;;;;;;;46.83;8.82;;;;;;;-0.73;100.00;100376.31;8284753;28;20045;-72
2022/01/15 03:15:49;;;;;;;32.08;3.95;;;;;;;-0.73;100.00;100376.31;8328394;28;20123;-73
2022/01/15 03:19:49;;;;;;;31.58;4.35;;;;;;;-0.73;100.00;100371.03;8324252;28;20058;-73
2022/01/15 03:23:50;;;;;;;28.95;5.38;;;;;;;-0.71;100.00;100371.66;8297618;28;20482;-72
2022/01/15 03:27:51;;;;;;;36.75;5.55;;;;;;;-0.74;100.00;100374.69;8284084;28;20050;-72
2022/01/15 03:31:52;;;;;;;31.23;4.32;;;;;;;-0.78;100.00;100368.16;8302543;28;20045;-71
2022/01/15 03:35:53;;;;;;;32.95;4.35;;;;;;;-0.76;100.00;100371.44;8302666;28;20507;-72
2022/01/15 03:39:54;;;;;;;26.25;3.50;;;;;;;-0.74;100.00;100372.03;8307029;28;20037;-72
2022/01/15 03:43:55;;;;;;;35.67;5.63;;;;;;;-0.76;100.00;100376.75;8334934;28;20057;-72
2022/01/15 03:47:59;;;;;;;29.08;4.13;;;;;;;-0.76;100.00;100374.09;8311683;28;20054;-72
2022/01/15 03:52:00;;;;;;;27.92;4.18;;;;;;;-0.83;100.00;100375.91;8308334;28;20146;-72
2022/01/15 03:56:00;;;;;;;31.65;5.07;;;;;;;-0.86;100.00;100371.03;8301966;28;20124;-72
2022/01/15 04:00:05;;;;;;;33.30;4.55;;;;;;;-0.87;100.00;100364.09;8305808;28;20073;-72
2022/01/15 04:04:06;;;;;;;24.90;4.03;;;;;;;-0.89;100.00;100376.72;8333259;28;20041;-72
2022/01/15 04:08:07;;;;;;;29.83;4.40;;;;;;;-0.87;100.00;100374.69;8266576;28;20085;-72
2022/01/15 04:12:08;;;;;;;23.90;3.90;;;;;;;-0.88;100.00;100376.53;8296385;28;20111;-72
2022/01/15 04:16:09;;;;;;;38.28;4.80;;;;;;;-0.82;100.00;100382.03;8301360;28;20440;-72
2022/01/15 04:20:10;;;;;;;30.48;3.70;;;;;;;-0.82;100.00;100396.13;8300183;28;20473;-72
2022/01/15 04:24:11;;;;;;;38.55;4.68;;;;;;;-0.85;100.00;100388.59;8266646;28;20049;-72
2022/01/15 04:28:12;;;;;;;37.05;5.45;;;;;;;-0.83;100.00;100391.84;8282414;28;20050;-72
2022/01/15 04:32:13;;;;;;;36.78;5.28;;;;;;;-0.82;100.00;100400.59;8300769;28;20519;-72
2022/01/15 04:36:14;;;;;;;36.80;4.20;;;;;;;-0.80;100.00;100402.06;8313702;28;20045;-72
2022/01/15 04:40:16;;;;;;;28.25;4.78;;;;;;;-0.80;100.00;100401.22;8333314;28;20476;-72
2022/01/15 04:44:17;;;;;;;25.88;4.57;;;;;;;-0.80;100.00;100409.19;8331857;28;20038;-72
2022/01/15 04:48:17;;;;;;;33.95;5.07;;;;;;;-0.82;100.00;100409.38;8301237;28;20053;-72
2022/01/15 04:52:18;;;;;;;31.23;4.85;;;;;;;-0.82;100.00;100414.69;8298535;28;20057;-72
2022/01/15 04:56:19;;;;;;;32.03;5.03;;;;;;;-0.83;100.00;100410.41;8310478;28;20072;-72
2022/01/15 05:00:20;;;;;;;30.15;5.22;;;;;;;-0.83;100.00;100413.06;8330453;28;20087;-72
2022/01/15 05:04:21;;;;;;;36.65;5.13;;;;;;;-0.86;100.00;100402.84;8332630;28;20049;-71
2022/01/15 05:08:22;;;;;;;31.58;4.95;;;;;;;-0.83;100.00;100407.75;8300831;28;20473;-72
2022/01/15 05:16:23;;;;;;;25.30;5.80;;;;;;;-0.86;100.00;100408.16;8309863;28;20076;-72
2022/01/15 05:20:24;;;;;;;28.58;5.40;;;;;;;-0.85;100.00;100409.81;8301234;28;20049;-72
2022/01/15 05:24:26;;;;;;;30.88;6.22;;;;;;;-0.83;100.00;100417.53;8299290;28;20124;-72
2022/01/15 05:28:27;;;;;;;37.83;6.13;;;;;;;-0.75;100.00;100412.88;8297971;28;20053;-72
2022/01/15 05:32:28;;;;;;;39.97;6.82;;;;;;;-0.74;100.00;100406.53;8298646;28;20432;-73
2022/01/15 05:36:28;;;;;;;32.65;6.95;;;;;;;-0.75;100.00;100418.19;8263329;28;20064;-72
2022/01/15 05:40:29;;;;;;;28.33;6.13;;;;;;;-0.75;100.00;100420.81;8298963;28;20508;-72
2022/01/15 05:44:30;;;;;;;34.20;6.00;;;;;;;-0.73;100.00;100418.78;8310675;28;20124;-72
2022/01/15 05:48:31;;;;;;;42.22;6.88;;;;;;;-0.73;100.00;100424.06;8296736;28;20070;-71
2022/01/15 05:52:32;;;;;;;32.40;6.22;;;;;;;-0.72;100.00;100425.72;8306926;28;20064;-72
2022/01/15 05:56:33;;;;;;;47.67;6.72;;;;;;;-0.71;100.00;100427.34;8299558;28;20042;-72
2022/01/15 06:00:34;;;;;;;43.55;5.95;;;;;;;-0.72;100.00;100431.03;8293804;28;20433;-72
2022/01/15 06:04:35;;;;;;;34.42;7.47;;;;;;;-0.71;100.00;100435.31;8295168;28;20038;-72
2022/01/15 06:08:35;;;;;;;32.83;7.65;;;;;;;-0.68;100.00;100442.84;8299391;28;20060;-72
2022/01/15 06:12:44;;;;;;;33.25;7.75;;;;;;;-0.73;100.00;100450.59;8301076;28;20076;-71
2022/01/15 06:16:45;;;;;;;43.25;9.68;;;;;;;-0.75;100.00;100444.69;8295705;28;20053;-72
2022/01/15 06:20:46;;;;;;;37.88;8.20;;;;;;;-0.72;100.00;100441.63;8295289;28;20073;-71
2022/01/15 06:24:46;;;;;;;34.10;8.13;;;;;;;-0.74;100.00;100443.66;8297524;28;20104;-72
2022/01/15 06:28:47;;;;;;;32.33;8.63;;;;;;;-0.74;100.00;100435.69;8297759;28;20470;-72
2022/01/15 06:32:48;;;;;;;32.58;7.57;;;;;;;-0.81;100.00;100445.50;8299650;28;20046;-72
2022/01/15 06:36:49;;;;;;;37.42;7.53;;;;;;;-0.80;100.00;100439.19;8295506;28;20042;-71
2022/01/15 06:40:49;;;;;;;27.10;6.95;;;;;;;-0.84;100.00;100432.63;8297647;28;20053;-72
2022/01/15 06:44:50;;;;;;;33.55;7.40;;;;;;;-0.91;100.00;100432.66;8297716;28;21035;-72
2022/01/15 06:48:51;;;;;;;26.73;7.45;;;;;;;-0.96;100.00;100428.97;8295263;28;20141;-72
2022/01/15 06:52:52;;;;;;;28.65;6.85;;;;;;;-1.03;100.00;100436.06;8294967;28;20509;-72
2022/01/15 06:56:52;;;;;;;31.40;7.70;;;;;;;-1.09;100.00;100439.53;8260536;28;20555;-72
2022/01/15 07:00:54;;;;;;;36.35;7.03;;;;;;;-1.09;100.00;100439.53;8303974;28;20153;-72
2022/01/15 07:04:54;;;;;;;38.78;7.38;;;;;;;-1.08;100.00;100430.56;8303236;28;20048;-72
2022/01/15 07:08:55;;;;;;;34.28;7.05;;;;;;;-1.03;100.00;100449.34;8303152;28;20502;-72
2022/01/15 07:12:56;;;;;;;43.90;8.35;;;;;;;-1.02;100.00;100445.66;8303279;28;20136;-71
2022/01/15 07:16:57;;;;;;;39.08;9.90;;;;;;;-1.01;100.00;100442.00;8302780;28;20092;-72
2022/01/15 07:20:57;;;;;;;62.05;11.60;;;;;;;-0.96;100.00;100434.25;8306350;28;20552;-72
2022/01/15 07:24:58;;;;;;;37.42;10.40;;;;;;;-0.95;100.00;100441.19;8302614;28;20096;-72
2022/01/15 07:28:59;;;;;;;41.92;9.52;;;;;;;-0.93;100.00;100439.16;8283783;28;20074;-72
2022/01/15 07:33:00;;;;;;;55.67;8.55;;;;;;;-0.89;100.00;100440.38;8302490;28;20045;-71
2022/01/15 07:37:01;;;;;;;35.33;8.55;;;;;;;-0.77;100.00;100448.56;8302089;28;20056;-71
2022/01/15 07:41:02;;;;;;;35.50;8.73;;;;;;;-0.74;100.00;100451.63;8305736;28;20049;-71
2022/01/15 07:45:08;;;;;;;29.10;8.10;;;;;;;-0.64;100.00;100460.03;8301662;28;20053;-72
2022/01/15 07:49:09;;;;;;;42.90;8.38;;;;;;;-0.59;100.00;100462.88;8307668;28;20046;-71
2022/01/15 07:53:09;;;;;;;42.67;9.18;;;;;;;-0.47;100.00;100466.53;8301412;28;20477;-72
2022/01/15 07:57:10;;;;;;;32.10;8.57;;;;;;;-0.43;100.00;100478.41;8301818;28;20068;-72
2022/01/15 08:01:11;;;;;;;32.45;8.23;;;;;;;-0.34;100.00;100472.88;8301285;28;20132;-72
2022/01/15 08:05:13;;;;;;;36.72;8.40;;;;;;;-0.24;100.00;100486.56;8301218;28;20100;-72
2022/01/15 08:09:13;;;;;;;39.08;9.15;;;;;;;-0.19;100.00;100489.41;8302388;28;20054;-72
2022/01/15 08:13:14;;;;;;;39.80;9.50;;;;;;;-0.15;100.00;100485.31;8301254;28;20490;-72
2022/01/15 08:17:16;;;;;;;46.65;10.70;;;;;;;-0.03;100.00;100494.31;8305283;28;20057;-71
2022/01/15 08:21:17;;;;;;;49.85;10.75;;;;;;;0.02;100.00;100494.50;8333963;28;20057;-71
2022/01/15 08:25:18;;;;;;;46.65;10.18;;;;;;;0.09;100.00;100487.34;8310899;28;20451;-72
2022/01/15 08:29:19;;;;;;;47.55;10.13;;;;;;;0.13;100.00;100499.19;8312712;28;20052;-71
2022/01/15 08:33:20;;;;;;;48.80;10.52;;;;;;;0.22;100.00;100502.44;8293190;28;20054;-71
2022/01/15 08:37:21;;;;;;;50.80;10.95;;;;;;;0.29;100.00;100500.59;8300786;28;20080;-72
2022/01/15 08:41:22;;;;;;;40.38;9.77;;;;;;;0.35;100.00;100500.59;8309322;28;20574;-71
2022/01/15 08:45:23;;;;;;;46.00;9.18;;;;;;;0.37;100.00;100511.81;8294980;28;20050;-71
2022/01/15 08:49:23;;;;;;;35.42;9.68;;;;;;;0.46;100.00;100514.25;8295826;28;20054;-71
2022/01/15 08:53:24;;;;;;;43.05;9.75;;;;;;;0.54;100.00;100516.66;8295509;28;20058;-72
2022/01/15 08:57:25;;;;;;;47.70;9.52;;;;;;;0.64;100.00;100511.72;8245036;28;20046;-71
2022/01/15 09:01:26;;;;;;;43.63;8.63;;;;;;;0.66;100.00;100510.50;8297192;28;20177;-72
2022/01/15 09:05:27;;;;;;;41.38;9.90;;;;;;;0.73;100.00;100515.81;8298610;28;20050;-72
2022/01/15 09:09:28;;;;;;;44.00;9.25;;;;;;;0.79;100.00;100515.75;8297854;28;20084;-72
2022/01/15 09:13:29;;;;;;;40.22;10.23;;;;;;;0.80;100.00;100527.22;8298833;28;20077;-72
2022/01/15 09:17:30;;;;;;;37.80;7.97;;;;;;;0.86;100.00;100537.00;8298954;28;20054;-72
2022/01/15 09:21:31;;;;;;;42.58;9.55;;;;;;;0.95;100.00;100541.09;8279523;28;20046;-72
2022/01/15 09:25:32;;;;;;;48.20;11.65;;;;;;;1.00;100.00;100537.81;8298316;28;20050;-72
2022/01/15 09:33:52;;;;;;;46.70;10.50;;;;;;;1.02;100.00;100536.53;8300546;28;20054;-72
2022/01/15 09:37:53;;;;;;;37.83;9.10;;;;;;;1.07;100.00;100538.56;8313989;28;20050;-71
2022/01/15 09:41:55;;;;;;;42.58;10.15;;;;;;;1.09;100.00;100540.00;8267619;28;20042;-72
2022/01/15 09:45:57;;;;;;;45.78;10.15;;;;;;;1.21;100.00;100535.66;8309038;28;20044;-72
2022/01/15 09:49:59;;;;;;;43.80;9.98;;;;;;;1.28;99.83;100525.75;8296917;28;20054;-72
2022/01/15 09:54:00;;;;;;;41.78;10.30;;;;;;;1.39;99.46;100526.94;8252623;28;20058;-72
2022/01/15 09:58:01;;;;;;;45.05;9.95;;;;;;;1.50;98.81;100522.78;8288040;28;20054;-72
2022/01/15 10:02:05;;;;;;;51.25;9.82;;;;;;;1.64;97.57;100518.97;8298351;28;20078;-71
2022/01/15 10:06:06;;;;;;;38.38;9.55;;;;;;;1.69;97.41;100521.84;8298936;28;20054;-72
2022/01/15 10:10:16;;;;;;;52.97;9.88;;;;;;;1.68;97.42;100517.53;8297864;28;20160;-72
2022/01/15 10:14:41;;;;;;;44.45;9.45;;;;;;;1.69;96.33;100527.94;8298235;28;20068;-71
2022/01/15 10:18:44;;;;;;;52.10;10.88;;;;;;;1.60;96.84;100517.78;8295658;28;20044;-72
2022/01/15 10:22:51;;;;;;;48.72;9.95;;;;;;;1.55;96.97;100530.94;8302923;28;20120;-71
2022/01/15 10:26:52;;;;;;;42.92;9.77;;;;;;;1.56;96.85;100537.88;8324608;28;20050;-72
2022/01/15 10:30:53;;;;;;;40.33;10.65;;;;;;;1.52;97.27;100531.38;8297061;28;20058;-73
2022/01/15 10:34:54;;;;;;;50.33;9.85;;;;;;;1.58;97.04;100530.50;8318651;28;20393;-71
2022/01/15 10:39:19;;;;;;;47.50;11.88;;;;;;;1.62;95.50;100537.03;8309034;28;20050;-72
2022/01/15 10:43:30;;;;;;;55.75;13.40;;;;;;;1.55;96.02;100544.25;8197051;28;20047;-71
2022/01/15 10:47:43;;;;;;;45.97;11.25;;;;;;;1.48;95.35;100546.16;8197135;29;20392;-71
2022/01/15 10:51:44;;;;;;;47.97;11.73;;;;;;;1.32;96.36;100536.00;8164555;28;20495;-71
2022/01/15 10:55:51;;;;;;;53.25;12.70;;;;;;;1.17;97.09;100533.59;8207142;28;20047;-72
2022/01/15 10:59:56;;;;;;;47.53;12.30;;;;;;;1.21;97.24;100535.66;8228919;28;20050;-73
2022/01/15 11:03:57;;;;;;;55.08;12.60;;;;;;;1.24;97.37;100540.53;8215937;28;20050;-74
2022/01/15 11:08:27;;;;;;;50.83;12.93;;;;;;;1.24;97.79;100539.72;8196678;29;20047;-72
2022/01/15 11:12:28;;;;;;;45.15;12.52;;;;;;;1.26;97.18;100533.16;8196100;28;20063;-72
2022/01/15 11:16:28;;;;;;;101.72;25.52;;;;;;;1.21;97.68;100540.97;8196670;29;20119;-71
2022/01/15 11:20:31;;;;;;;67.28;16.35;;;;;;;1.21;97.62;100540.97;8280106;28;20119;-72
2022/01/15 11:24:32;;;;;;;51.78;13.43;;;;;;;1.20;98.11;100534.00;8278680;28;20057;-72
2022/01/15 11:28:34;;;;;;;55.20;13.32;;;;;;;1.22;98.56;100526.63;8326920;28;20065;-72
2022/01/15 11:32:35;;;;;;;42.38;10.48;;;;;;;1.26;97.64;100538.50;8309623;28;20078;-71
2022/01/15 11:36:41;;;;;;;55.42;12.13;;;;;;;1.27;97.90;100528.63;8296809;28;20050;-71
2022/01/15 11:40:45;;;;;;;50.70;11.13;;;;;;;1.27;97.53;100524.13;8295623;28;20045;-72
2022/01/15 11:44:46;;;;;;;37.00;10.13;;;;;;;1.39;96.53;100526.13;8296383;28;20065;-71
2022/01/15 11:48:47;;;;;;;48.30;13.15;;;;;;;1.36;96.86;100531.88;8333403;28;20053;-71
2022/01/15 11:52:49;;;;;;;37.88;8.93;;;;;;;1.32;97.13;100536.00;8302264;28;20054;-70
2022/01/15 11:56:50;;;;;;;51.67;9.45;;;;;;;1.24;97.29;100540.53;8301865;28;20054;-70
2022/01/15 12:00:52;;;;;;;35.33;8.50;;;;;;;1.28;97.56;100515.13;8283830;28;20053;-70
2022/01/15 12:04:53;;;;;;;45.55;9.60;;;;;;;1.37;96.59;100522.88;8302338;28;20056;-71
2022/01/15 12:08:53;;;;;;;43.28;9.23;;;;;;;1.30;96.98;100516.75;8301516;28;20521;-71
2022/01/15 12:12:55;;;;;;;51.17;10.23;;;;;;;1.37;96.45;100517.53;8311293;28;20136;-72
2022/01/15 12:17:25;;;;;;;42.20;9.10;;;;;;;1.36;96.98;100507.91;8284265;28;20046;-71
2022/01/15 12:21:46;;;;;;;38.97;8.32;;;;;;;1.39;96.62;100488.84;8300565;28;20076;-71
2022/01/15 12:25:51;;;;;;;41.53;8.73;;;;;;;1.43;97.12;100484.75;8299139;28;20056;-71
2022/01/15 12:30:02;;;;;;;39.45;8.95;;;;;;;1.41;97.18;100476.16;8268967;28;20054;-71
2022/01/15 12:34:03;;;;;;;50.45;16.20;;;;;;;1.47;97.59;100465.47;8293306;28;20068;-71
2022/01/15 12:38:13;;;;;;;40.25;8.40;;;;;;;1.52;97.06;100472.78;8300856;28;20054;-71
2022/01/15 12:42:17;;;;;;;43.05;7.22;;;;;;;1.55;96.21;100477.69;8300992;28;20053;-71
2022/01/15 12:46:19;;;;;;;35.15;7.90;;;;;;;1.60;96.00;100469.84;8301174;28;20054;-71
2022/01/15 12:50:20;;;;;;;39.03;8.00;;;;;;;1.54;95.79;100460.06;8300877;28;20125;-71
2022/01/15 12:54:30;;;;;;;40.00;8.32;;;;;;;1.54;96.47;100460.06;8300710;28;20054;-70
2022/01/15 12:58:31;;;;;;;38.60;7.53;;;;;;;1.52;96.33;100451.50;8300230;28;20398;-72
2022/01/15 13:02:32;;;;;;;38.92;7.55;;;;;;;1.55;96.64;100451.88;8298910;28;20053;-71
2022/01/15 13:06:33;;;;;;;40.00;8.68;;;;;;;1.59;96.48;100452.25;8299042;28;20421;-71
2022/01/15 13:10:56;;;;;;;36.10;7.25;;;;;;;1.57;95.98;100454.31;8314050;28;20048;-70
2022/01/15 13:14:57;;;;;;;47.78;8.50;;;;;;;1.52;95.88;100456.81;8300373;28;20081;-70
2022/01/15 13:19:03;;;;;;;31.83;7.90;;;;;;;1.44;96.30;100449.91;8298664;28;20433;-70
2022/01/15 13:23:04;;;;;;;40.38;8.95;;;;;;;1.43;96.58;100447.47;8325376;28;20057;-71
2022/01/15 13:27:05;;;;;;;43.90;8.02;;;;;;;1.46;96.35;100441.72;8331316;28;20507;-71
2022/01/15 13:31:06;;;;;;;33.42;7.68;;;;;;;1.45;96.76;100456.03;8300661;28;20054;-71
2022/01/15 13:35:13;;;;;;;52.20;8.13;;;;;;;1.49;96.19;100457.25;8297941;28;20103;-70
2022/01/15 13:39:15;;;;;;;36.90;7.68;;;;;;;1.45;95.85;100450.72;8299374;28;20046;-71
2022/01/15 13:43:25;;;;;;;56.33;9.65;;;;;;;1.45;96.40;100451.53;8299280;28;20057;-71
2022/01/15 13:47:32;;;;;;;38.63;7.65;;;;;;;1.49;96.33;100457.25;8298960;28;20108;-71
2022/01/15 13:56:14;;;;;;;30.38;6.65;;;;;;;1.49;96.41;100451.91;8298926;28;20084;-71
2022/01/15 14:00:16;;;;;;;39.83;6.95;;;;;;;1.48;96.51;100455.63;8280136;28;20151;-71
2022/01/15 14:04:29;;;;;;;39.38;7.90;;;;;;;1.48;96.95;100445.78;8297472;28;20458;-71
2022/01/15 14:08:30;;;;;;;45.08;7.13;;;;;;;1.50;96.55;100453.53;8309547;28;20462;-72
2022/01/15 14:12:32;;;;;;;42.97;6.78;;;;;;;1.58;96.19;100434.66;8296630;28;20064;-71
2022/01/15 14:16:33;;;;;;;39.60;7.30;;;;;;;1.52;95.31;100448.84;8297798;28;20046;-71
2022/01/15 14:20:50;;;;;;;45.08;6.70;;;;;;;1.52;96.16;100451.50;8297235;28;20050;-73
2022/01/15 14:24:52;;;;;;;35.50;7.18;;;;;;;1.52;96.22;100440.84;8297762;28;20100;-74
2022/01/15 14:28:56;;;;;;;50.83;7.78;;;;;;;1.56;96.30;100452.69;8281226;28;20056;-73
2022/01/15 14:32:58;;;;;;;39.80;7.15;;;;;;;1.54;95.85;100460.06;8297332;28;20133;-73
2022/01/15 14:36:59;;;;;;;55.83;7.82;;;;;;;1.51;96.24;100460.50;8297713;28;20481;-73
2022/01/15 14:40:59;;;;;;;42.90;7.72;;;;;;;1.45;96.45;100456.03;8298135;28;20053;-73
2022/01/15 14:45:01;;;;;;;34.63;7.85;;;;;;;1.44;96.31;100465.06;8278632;28;20046;-74
2022/01/15 14:49:02;;;;;;;44.35;7.88;;;;;;;1.41;96.36;100455.66;8294345;28;20054;-72
2022/01/15 14:53:03;;;;;;;39.70;7.82;;;;;;;1.37;96.20;100448.34;8299447;28;20057;-73
2022/01/15 14:57:04;;;;;;;44.72;8.90;;;;;;;1.28;96.39;100456.56;8297478;28;20484;-73
2022/01/15 15:01:05;;;;;;;54.47;8.90;;;;;;;1.22;96.76;100452.09;8297096;28;20054;-72
2022/01/15 15:05:08;;;;;;;44.80;8.30;;;;;;;1.12;96.74;100451.75;8296399;28;20057;-73
2022/01/15 15:09:09;;;;;;;37.60;8.00;;;;;;;1.08;97.09;100450.56;8295409;28;20058;-73
2022/01/15 15:13:10;;;;;;;48.20;9.57;;;;;;;1.10;97.21;100448.53;8297483;28;20053;-72
2022/01/15 15:17:11;;;;;;;48.15;8.65;;;;;;;1.13;97.02;100448.06;8295878;28;20053;-72
2022/01/15 15:21:12;;;;;;;47.67;8.50;;;;;;;1.13;97.42;100450.75;8300290;28;20375;-72
2022/01/15 15:25:13;;;;;;;40.63;8.60;;;;;;;1.13;97.45;100432.13;8301734;28;20053;-73
2022/01/15 15:29:14;;;;;;;42.08;8.90;;;;;;;1.14;97.22;100444.41;8306971;28;20092;-72
2022/01/15 15:33:15;;;;;;;83.85;23.67;;;;;;;1.17;97.69;100449.28;8301510;28;20077;-73
2022/01/15 15:37:16;;;;;;;46.22;9.48;;;;;;;1.16;97.45;100442.31;8302179;28;20049;-73
2022/01/15 15:41:16;;;;;;;38.10;9.65;;;;;;;1.17;97.59;100446.59;8301402;28;20493;-73
2022/01/15 15:45:17;;;;;;;56.38;14.18;;;;;;;1.15;97.72;100435.38;8301252;28;20141;-73
2022/01/15 15:49:19;;;;;;;48.67;10.65;;;;;;;1.14;97.63;100433.75;8327208;28;20497;-73
2022/01/15 15:53:20;;;;;;;37.35;8.90;;;;;;;1.08;97.94;100434.59;8334250;28;20108;-73
2022/01/15 15:57:20;;;;;;;40.42;9.75;;;;;;;1.07;97.99;100427.66;8324689;28;20050;-73
2022/01/15 16:01:21;;;;;;;34.30;8.77;;;;;;;1.04;97.84;100428.09;8301218;28;20061;-74
2022/01/15 16:05:23;;;;;;;35.90;8.90;;;;;;;0.99;98.05;100433.25;8300183;28;20108;-74
2022/01/15 16:09:23;;;;;;;44.03;8.32;;;;;;;0.94;98.21;100433.06;8300210;28;20042;-74
2022/01/15 16:13:24;;;;;;;41.83;8.40;;;;;;;0.91;98.15;100430.81;8300655;28;20137;-73
2022/01/15 16:17:27;;;;;;;50.47;9.93;;;;;;;0.92;98.47;100435.09;8277162;28;20069;-72
2022/01/15 16:21:28;;;;;;;40.55;9.02;;;;;;;0.93;98.18;100431.44;8300378;28;20069;-73
2022/01/15 16:25:29;;;;;;;35.17;8.35;;;;;;;0.92;98.24;100435.09;8300106;28;20042;-75
2022/01/15 16:29:31;;;;;;;31.42;9.43;;;;;;;0.89;98.29;100446.19;8300539;28;20050;-74
2022/01/15 16:33:32;;;;;;;44.85;9.15;;;;;;;0.84;98.30;100438.84;8300018;28;20461;-74
2022/01/15 16:37:33;;;;;;;44.63;8.18;;;;;;;0.81;98.60;100441.09;8300610;28;20042;-73
2022/01/15 16:41:34;;;;;;;34.08;7.20;;;;;;;0.81;98.58;100446.41;8300359;28;20133;-74
2022/01/15 16:45:35;;;;;;;31.52;7.18;;;;;;;0.84;98.72;100438.03;8301112;28;20136;-73
2022/01/15 16:49:37;;;;;;;49.88;10.38;;;;;;;0.84;98.82;100438.03;8303039;28;20104;-73
2022/01/15 16:53:38;;;;;;;40.97;8.35;;;;;;;0.84;98.43;100438.03;8299528;28;20134;-73
2022/01/15 16:57:39;;;;;;;37.60;9.55;;;;;;;0.83;98.16;100420.44;8332809;28;20057;-73
2022/01/15 17:01:40;;;;;;;38.45;8.40;;;;;;;0.74;97.66;100427.03;8324357;28;20038;-74
2022/01/15 17:05:41;;;;;;;33.40;6.53;;;;;;;0.68;98.07;100419.91;8299576;28;20096;-74
2022/01/15 17:09:42;;;;;;;40.72;7.90;;;;;;;0.62;98.33;100418.09;8297693;28;20460;-73
2022/01/15 17:13:45;;;;;;;38.22;7.28;;;;;;;0.52;98.27;100423.06;8281102;28;20085;-72
2022/01/15 17:17:47;;;;;;;29.23;8.15;;;;;;;0.43;98.38;100404.66;8331953;28;20045;-73
2022/01/15 17:21:47;;;;;;;38.65;8.45;;;;;;;0.38;98.34;100412.47;8331885;28;20128;-73
2022/01/15 17:25:48;;;;;;;35.00;7.75;;;;;;;0.34;98.56;100421.88;8312996;28;20049;-73
2022/01/15 17:29:49;;;;;;;32.85;7.88;;;;;;;0.26;98.57;100411.50;8304332;28;20049;-73
2022/01/15 17:33:50;;;;;;;40.92;8.63;;;;;;;0.21;98.52;100405.97;8296550;28;20041;-73
2022/01/15 17:37:51;;;;;;;48.40;9.45;;;;;;;0.21;98.56;100400.66;8298097;28;20145;-73
2022/01/15 17:41:53;;;;;;;38.08;8.57;;;;;;;0.24;98.58;100400.25;8297558;28;20065;-73
2022/01/15 17:45:54;;;;;;;45.92;9.77;;;;;;;0.27;98.69;100399.81;8309563;28;20092;-73
2022/01/15 17:49:55;;;;;;;33.05;7.72;;;;;;;0.31;98.56;100401.06;8296327;28;20061;-74
2022/01/15 17:53:56;;;;;;;34.28;6.80;;;;;;;0.36;98.13;100403.91;8293102;28;20104;-73
2022/01/15 17:57:57;;;;;;;36.30;9.27;;;;;;;0.37;98.22;100405.50;8293875;28;20065;-73
2022/01/15 18:01:58;;;;;;;69.75;22.40;;;;;;;0.36;98.02;100403.91;8293962;28;20536;-74
2022/01/15 18:06:03;;;;;;;57.92;19.63;;;;;;;0.38;98.36;100396.50;8294467;28;20054;-73
2022/01/15 18:10:05;;;;;;;57.10;21.10;;;;;;;0.43;98.11;100388.72;8293440;28;20086;-73
2022/01/15 18:14:10;;;;;;;47.10;16.80;;;;;;;0.42;98.29;100381.78;8296010;28;20516;-74
2022/01/15 18:18:11;;;;;;;49.42;15.45;;;;;;;0.39;98.22;100371.56;8291972;28;20099;-73
2022/01/15 18:22:12;;;;;;;47.92;16.15;;;;;;;0.41;98.04;100368.72;8293275;28;20042;-73
2022/01/15 18:26:17;;;;;;;47.83;15.65;;;;;;;0.41;98.50;100380.16;8291825;28;20065;-75
2022/01/15 18:30:18;;;;;;;53.65;13.23;;;;;;;0.39;98.41;100365.44;8264650;28;20104;-73
2022/01/15 18:34:19;;;;;;;59.80;13.73;;;;;;;0.39;98.54;100384.88;8292744;28;20432;-74
2022/01/15 18:38:20;;;;;;;41.80;14.07;;;;;;;0.42;98.21;100381.78;8294140;28;20405;-74
2022/01/15 18:42:21;;;;;;;52.13;15.90;;;;;;;0.45;98.35;100374.41;8299168;28;20050;-74
2022/01/15 18:46:25;;;;;;;47.95;13.00;;;;;;;0.48;98.23;100376.66;8287624;28;20038;-73
2022/01/15 18:50:26;;;;;;;50.05;12.30;;;;;;;0.50;98.50;100374.59;8305976;28;20128;-74
2022/01/15 18:54:28;;;;;;;41.08;12.18;;;;;;;0.49;98.10;100370.28;8295064;28;20053;-74
2022/01/15 18:58:29;;;;;;;39.15;11.38;;;;;;;0.40;97.94;100375.88;8294611;28;20056;-75
2022/01/15 19:02:30;;;;;;;44.88;12.30;;;;;;;0.36;97.81;100387.97;8294163;28;20045;-74
2022/01/15 19:06:31;;;;;;;52.28;11.95;;;;;;;0.36;98.01;100409.22;8295815;28;20050;-74
2022/01/15 19:10:32;;;;;;;47.75;12.35;;;;;;;0.34;98.12;100419.22;8299926;28;20069;-74
2022/01/15 19:14:34;;;;;;;49.65;16.27;;;;;;;0.35;98.16;100510.41;8295208;28;20559;-74